Terminal Aerodrome Forecast
Issued by NWS Portland, OR

Home | Current Version | Previous Version | Text Only | Print | Product List | Glossary On
Versions: 1 2 3 4 5 6 7 8 9 10 11 12 13 14 15 16 17 18 19 20
000
FTUS46 KPQR 190521
TAFEUG
TAF
KEUG 190521Z 1906/2006 VRB04KT P6SM BKN200
     FM191200 17008KT P6SM SCT200
     FM191500 18011KT P6SM -RA BKN050 OVC100
     FM192000 22012KT P6SM BKN050
     FM200000 25015G25KT P6SM BKN100
     FM200400 26007KT P6SM SCT200=

USA.gov is the U.S. government's official web portal to all federal, state and local government web resources and services.